sensor_id;sensor_type;location;lat;lon;timestamp;pressure;altitude;pressure_sealevel;temperature;humidity
47054;BME280;32811;52.382;5.270;2023-03-29T00:02:02;101677.97;;;4.82;100.00
47054;BME280;32811;52.382;5.270;2023-03-29T00:04:29;101677.22;;;4.84;100.00
47054;BME280;32811;52.382;5.270;2023-03-29T00:06:56;101677.22;;;4.84;100.00
47054;BME280;32811;52.382;5.270;2023-03-29T00:09:22;101673.09;;;4.88;100.00
47054;BME280;32811;52.382;5.270;2023-03-29T00:11:51;101659.38;;;4.86;100.00
47054;BME280;32811;52.382;5.270;2023-03-29T00:14:18;101664.59;;;4.89;100.00
47054;BME280;32811;52.382;5.270;2023-03-29T00:16:44;101650.84;;;4.85;100.00
47054;BME280;32811;52.382;5.270;2023-03-29T00:19:12;101649.22;;;4.87;100.00
47054;BME280;32811;52.382;5.270;2023-03-29T00:21:39;101643.41;;;4.91;100.00
47054;BME280;32811;52.382;5.270;2023-03-29T00:24:06;101649.31;;;4.90;100.00
47054;BME280;32811;52.382;5.270;2023-03-29T00:26:32;101650.84;;;4.85;100.00
47054;BME280;32811;52.382;5.270;2023-03-29T00:28:59;101632.75;;;4.81;100.00
47054;BME280;32811;52.382;5.270;2023-03-29T00:31:26;101644.72;;;4.82;100.00
47054;BME280;32811;52.382;5.270;2023-03-29T00:33:52;101634.47;;;4.82;100.00
47054;BME280;32811;52.382;5.270;2023-03-29T00:36:19;101632.84;;;4.84;100.00
47054;BME280;32811;52.382;5.270;2023-03-29T00:38:47;101635.41;;;4.84;100.00
47054;BME280;32811;52.382;5.270;2023-03-29T00:41:14;101633.13;;;4.90;100.00
47054;BME280;32811;52.382;5.270;2023-03-29T00:46:21;101625.72;;;4.97;100.00
47054;BME280;32811;52.382;5.270;2023-03-29T00:48:51;101611.97;;;4.94;100.00
47054;BME280;32811;52.382;5.270;2023-03-29T00:51:19;101618.78;;;4.93;100.00
47054;BME280;32811;52.382;5.270;2023-03-29T00:53:49;101620.50;;;4.94;100.00
47054;BME280;32811;52.382;5.270;2023-03-29T00:56:27;101619.94;;;5.02;100.00
47054;BME280;32811;52.382;5.270;2023-03-29T00:59:04;101601.94;;;5.00;100.00
47054;BME280;32811;52.382;5.270;2023-03-29T01:01:41;101599.47;;;5.02;100.00
47054;BME280;32811;52.382;5.270;2023-03-29T01:04:17;101606.63;;;5.10;100.00
47054;BME280;32811;52.382;5.270;2023-03-29T01:06:56;101599.53;;;5.03;100.00
47054;BME280;32811;52.382;5.270;2023-03-29T01:09:26;101596.16;;;5.04;100.00
47054;BME280;32811;52.382;5.270;2023-03-29T01:11:59;101600.66;;;5.10;100.00
47054;BME280;32811;52.382;5.270;2023-03-29T01:14:44;101585.16;;;5.07;100.00
47054;BME280;32811;52.382;5.270;2023-03-29T01:17:14;101589.31;;;5.03;100.00
47054;BME280;32811;52.382;5.270;2023-03-29T01:19:45;101597.16;;;5.08;100.00
47054;BME280;32811;52.382;5.270;2023-03-29T01:25:36;101593.94;;;5.13;100.00
47054;BME280;32811;52.382;5.270;2023-03-29T01:28:14;101575.31;;;5.16;100.00
47054;BME280;32811;52.382;5.270;2023-03-29T01:30:52;101583.16;;;5.20;100.00
47054;BME280;32811;52.382;5.270;2023-03-29T01:33:30;101531.72;;;4.92;100.00
47054;BME280;32811;52.382;5.270;2023-03-29T01:36:08;101573.78;;;5.21;100.00
47054;BME280;32811;52.382;5.270;2023-03-29T01:38:42;101582.63;;;5.29;100.00
47054;BME280;32811;52.382;5.270;2023-03-29T01:41:10;101573.59;;;5.39;100.00
47054;BME280;32811;52.382;5.270;2023-03-29T01:43:56;101564.41;;;5.44;100.00
47054;BME280;32811;52.382;5.270;2023-03-29T01:46:32;101572.41;;;5.53;100.00
47054;BME280;32811;52.382;5.270;2023-03-29T01:51:40;101552.47;;;5.45;100.00
47054;BME280;32811;52.382;5.270;2023-03-29T01:54:12;101556.84;;;5.47;100.00
47054;BME280;32811;52.382;5.270;2023-03-29T01:56:43;101551.00;;;5.51;100.00
47054;BME280;32811;52.382;5.270;2023-03-29T01:59:14;101557.19;;;5.56;100.00
47054;BME280;32811;52.382;5.270;2023-03-29T02:01:48;101557.13;;;5.55;100.00
47054;BME280;32811;52.382;5.270;2023-03-29T02:04:20;101537.75;;;5.39;100.00
47054;BME280;32811;52.382;5.270;2023-03-29T02:06:48;101528.56;;;5.44;100.00
47054;BME280;32811;52.382;5.270;2023-03-29T02:09:20;101539.72;;;5.46;100.00
47054;BME280;32811;52.382;5.270;2023-03-29T02:11:49;101538.91;;;5.47;100.00
47054;BME280;32811;52.382;5.270;2023-03-29T02:14:16;101531.00;;;5.41;100.00
47054;BME280;32811;52.382;5.270;2023-03-29T02:16:43;101528.50;;;5.43;100.00
47054;BME280;32811;52.382;5.270;2023-03-29T02:19:12;101529.38;;;5.43;100.00
47054;BME280;32811;52.382;5.270;2023-03-29T02:21:44;101527.94;;;5.51;100.00
47054;BME280;32811;52.382;5.270;2023-03-29T02:24:19;101510.53;;;5.41;100.00
47054;BME280;32811;52.382;5.270;2023-03-29T02:26:47;101520.06;;;5.45;100.00
47054;BME280;32811;52.382;5.270;2023-03-29T02:29:14;101522.81;;;5.51;100.00
47054;BME280;32811;52.382;5.270;2023-03-29T02:31:45;101508.31;;;5.50;100.00
47054;BME280;32811;52.382;5.270;2023-03-29T02:36:45;101516.31;;;5.59;100.00
47054;BME280;32811;52.382;5.270;2023-03-29T02:39:13;101516.41;;;5.62;100.00
47054;BME280;32811;52.382;5.270;2023-03-29T02:41:43;101502.69;;;5.60;100.00
47054;BME280;32811;52.382;5.270;2023-03-29T02:44:13;101494.94;;;5.59;100.00
47054;BME280;32811;52.382;5.270;2023-03-29T02:46:42;101498.53;;;5.64;100.00
47054;BME280;32811;52.382;5.270;2023-03-29T02:49:10;101494.28;;;5.65;100.00
47054;BME280;32811;52.382;5.270;2023-03-29T02:51:37;101497.78;;;5.67;100.00
47054;BME280;32811;52.382;5.270;2023-03-29T02:54:11;101465.63;;;5.51;100.00
47054;BME280;32811;52.382;5.270;2023-03-29T02:56:45;101492.72;;;5.68;100.00
47054;BME280;32811;52.382;5.270;2023-03-29T02:59:15;101498.66;;;5.67;100.00
47054;BME280;32811;52.382;5.270;2023-03-29T03:01:44;101480.59;;;5.64;100.00
47054;BME280;32811;52.382;5.270;2023-03-29T03:04:11;101474.63;;;5.64;100.00
47054;BME280;32811;52.382;5.270;2023-03-29T03:06:38;101468.78;;;5.68;100.00
47054;BME280;32811;52.382;5.270;2023-03-29T03:09:06;101474.88;;;5.71;100.00
47054;BME280;32811;52.382;5.270;2023-03-29T03:11:33;101474.00;;;5.71;100.00
47054;BME280;32811;52.382;5.270;2023-03-29T03:13:59;101460.81;;;5.60;100.00
47054;BME280;32811;52.382;5.270;2023-03-29T03:16:26;101475.72;;;5.70;100.00
47054;BME280;32811;52.382;5.270;2023-03-29T03:18:53;101478.19;;;5.67;100.00
47054;BME280;32811;52.382;5.270;2023-03-29T03:21:21;101457.63;;;5.66;100.00
47054;BME280;32811;52.382;5.270;2023-03-29T03:23:48;101462.81;;;5.67;100.00
47054;BME280;32811;52.382;5.270;2023-03-29T03:26:15;101462.44;;;5.82;100.00
47054;BME280;32811;52.382;5.270;2023-03-29T03:28:43;101442.31;;;5.67;100.00
47054;BME280;32811;52.382;5.270;2023-03-29T03:31:11;101464.84;;;5.77;100.00
47054;BME280;32811;52.382;5.270;2023-03-29T03:33:40;101440.47;;;5.63;100.00
47054;BME280;32811;52.382;5.270;2023-03-29T03:36:10;101446.53;;;5.67;100.00
47054;BME280;32811;52.382;5.270;2023-03-29T03:38:37;101444.91;;;5.69;100.00
47054;BME280;32811;52.382;5.270;2023-03-29T03:41:05;101463.06;;;5.75;100.00
47054;BME280;32811;52.382;5.270;2023-03-29T03:43:34;101429.53;;;5.69;100.00
47054;BME280;32811;52.382;5.270;2023-03-29T03:46:01;101451.25;;;5.80;100.00
47054;BME280;32811;52.382;5.270;2023-03-29T03:48:28;101435.50;;;5.68;100.00
47054;BME280;32811;52.382;5.270;2023-03-29T03:50:56;101453.19;;;5.86;100.00
47054;BME280;32811;52.382;5.270;2023-03-29T03:53:25;101450.75;;;5.90;100.00
47054;BME280;32811;52.382;5.270;2023-03-29T03:55:54;101442.88;;;5.84;100.00
47054;BME280;32811;52.382;5.270;2023-03-29T03:58:21;101442.78;;;5.81;100.00
47054;BME280;32811;52.382;5.270;2023-03-29T04:00:49;101456.59;;;5.86;100.00
47054;BME280;32811;52.382;5.270;2023-03-29T04:03:16;101444.41;;;5.79;100.00
47054;BME280;32811;52.382;5.270;2023-03-29T04:05:44;101460.88;;;5.86;100.00
47054;BME280;32811;52.382;5.270;2023-03-29T04:08:12;101453.22;;;5.87;100.00
47054;BME280;32811;52.382;5.270;2023-03-29T04:10:39;101451.56;;;5.89;100.00
47054;BME280;32811;52.382;5.270;2023-03-29T04:13:06;101447.13;;;5.83;100.00
47054;BME280;32811;52.382;5.270;2023-03-29T04:15:34;101459.38;;;5.92;100.00
47054;BME280;32811;52.382;5.270;2023-03-29T04:18:04;101454.25;;;5.92;100.00
47054;BME280;32811;52.382;5.270;2023-03-29T04:20:33;101439.66;;;5.90;100.00
47054;BME280;32811;52.382;5.270;2023-03-29T04:23:00;101438.75;;;5.89;100.00
47054;BME280;32811;52.382;5.270;2023-03-29T04:25:27;101446.50;;;5.91;100.00
47054;BME280;32811;52.382;5.270;2023-03-29T04:27:54;101431.81;;;5.85;100.00
47054;BME280;32811;52.382;5.270;2023-03-29T04:30:22;101454.28;;;5.94;100.00
47054;BME280;32811;52.382;5.270;2023-03-29T04:32:48;101423.78;;;5.74;100.00
47054;BME280;32811;52.382;5.270;2023-03-29T04:35:15;101437.81;;;5.86;100.00
47054;BME280;32811;52.382;5.270;2023-03-29T04:37:42;101433.59;;;5.88;100.00
47054;BME280;32811;52.382;5.270;2023-03-29T04:40:10;101439.06;;;5.97;100.00
47054;BME280;32811;52.382;5.270;2023-03-29T04:42:40;101422.84;;;5.98;100.00
47054;BME280;32811;52.382;5.270;2023-03-29T04:45:12;101428.13;;;6.02;100.00
47054;BME280;32811;52.382;5.270;2023-03-29T04:47:48;101423.75;;;5.98;100.00
47054;BME280;32811;52.382;5.270;2023-03-29T04:50:14;101412.28;;;5.89;100.00
47054;BME280;32811;52.382;5.270;2023-03-29T04:52:41;101427.13;;;5.97;100.00
47054;BME280;32811;52.382;5.270;2023-03-29T04:55:08;101427.97;;;5.98;100.00
47054;BME280;32811;52.382;5.270;2023-03-29T04:57:35;101406.19;;;5.85;100.00
47054;BME280;32811;52.382;5.270;2023-03-29T05:00:03;101410.72;;;5.94;100.00
47054;BME280;32811;52.382;5.270;2023-03-29T05:02:43;101418.91;;;6.08;100.00
47054;BME280;32811;52.382;5.270;2023-03-29T05:05:10;101422.28;;;6.07;100.00
47054;BME280;32811;52.382;5.270;2023-03-29T05:07:37;101424.03;;;6.08;100.00
47054;BME280;32811;52.382;5.270;2023-03-29T05:10:05;101418.94;;;6.09;100.00
47054;BME280;32811;52.382;5.270;2023-03-29T05:12:32;101422.25;;;6.05;100.00
47054;BME280;32811;52.382;5.270;2023-03-29T05:14:58;101421.41;;;6.06;100.00
47054;BME280;32811;52.382;5.270;2023-03-29T05:17:25;101420.44;;;6.02;100.00
47054;BME280;32811;52.382;5.270;2023-03-29T05:19:53;101427.47;;;6.08;100.00
47054;BME280;32811;52.382;5.270;2023-03-29T05:22:19;101403.34;;;6.01;100.00
47054;BME280;32811;52.382;5.270;2023-03-29T05:24:47;101408.47;;;6.01;100.00
47054;BME280;32811;52.382;5.270;2023-03-29T05:27:13;101410.19;;;6.02;100.00
47054;BME280;32811;52.382;5.270;2023-03-29T05:29:40;101416.28;;;6.06;100.00
47054;BME280;32811;52.382;5.270;2023-03-29T05:32:07;101422.25;;;6.05;100.00
47054;BME280;32811;52.382;5.270;2023-03-29T05:34:33;101422.25;;;6.05;100.00
47054;BME280;32811;52.382;5.270;2023-03-29T05:37:00;101417.06;;;6.03;100.00
47054;BME280;32811;52.382;5.270;2023-03-29T05:39:27;101422.28;;;6.07;100.00
47054;BME280;32811;52.382;5.270;2023-03-29T05:41:54;101424.13;;;6.11;100.00
47054;BME280;32811;52.382;5.270;2023-03-29T05:44:21;101424.22;;;6.14;100.00
47054;BME280;32811;52.382;5.270;2023-03-29T05:46:51;101432.03;;;6.18;100.00
47054;BME280;32811;52.382;5.270;2023-03-29T05:49:18;101421.91;;;6.21;100.00
47054;BME280;32811;52.382;5.270;2023-03-29T05:51:44;101421.00;;;6.19;100.00
47054;BME280;32811;52.382;5.270;2023-03-29T05:54:11;101432.22;;;6.23;100.00
47054;BME280;32811;52.382;5.270;2023-03-29T05:56:38;101436.72;;;6.30;100.00
47054;BME280;32811;52.382;5.270;2023-03-29T05:59:04;101431.66;;;6.33;100.00
47054;BME280;32811;52.382;5.270;2023-03-29T06:01:31;101423.91;;;6.32;100.00
47054;BME280;32811;52.382;5.270;2023-03-29T06:03:58;101423.97;;;6.33;100.00
47054;BME280;32811;52.382;5.270;2023-03-29T06:06:25;101425.75;;;6.36;100.00
47054;BME280;32811;52.382;5.270;2023-03-29T06:08:51;101419.63;;;6.31;100.00
47054;BME280;32811;52.382;5.270;2023-03-29T06:11:18;101419.78;;;6.35;100.00
47054;BME280;32811;52.382;5.270;2023-03-29T06:13:44;101437.28;;;6.49;100.00
47054;BME280;32811;52.382;5.270;2023-03-29T06:16:11;101433.84;;;6.48;100.00
47054;BME280;32811;52.382;5.270;2023-03-29T06:18:39;101424.41;;;6.47;100.00
47054;BME280;32811;52.382;5.270;2023-03-29T06:21:07;101446.16;;;6.60;100.00
47054;BME280;32811;52.382;5.270;2023-03-29T06:23:35;101438.41;;;6.58;100.00
47054;BME280;32811;52.382;5.270;2023-03-29T06:26:02;101432.22;;;6.52;100.00
47054;BME280;32811;52.382;5.270;2023-03-29T06:28:29;101426.19;;;6.50;100.00
47054;BME280;32811;52.382;5.270;2023-03-29T06:30:56;101438.59;;;6.64;100.00
47054;BME280;32811;52.382;5.270;2023-03-29T06:33:28;101434.59;;;6.73;100.00
47054;BME280;32811;52.382;5.270;2023-03-29T06:35:55;101425.09;;;6.70;100.00
47054;BME280;32811;52.382;5.270;2023-03-29T06:38:24;101446.75;;;6.80;100.00
47054;BME280;32811;52.382;5.270;2023-03-29T06:40:59;101457.22;;;6.86;100.00
47054;BME280;32811;52.382;5.270;2023-03-29T06:43:26;101439.06;;;6.80;100.00
47054;BME280;32811;52.382;5.270;2023-03-29T06:45:53;101451.34;;;6.90;100.00
47054;BME280;32811;52.382;5.270;2023-03-29T06:48:20;101435.72;;;6.82;100.00
47054;BME280;32811;52.382;5.270;2023-03-29T06:50:47;101457.44;;;6.94;100.00
47054;BME280;32811;52.382;5.270;2023-03-29T06:53:15;101454.19;;;7.01;100.00
47054;BME280;32811;52.382;5.270;2023-03-29T06:55:42;101429.94;;;6.90;100.00
47054;BME280;32811;52.382;5.270;2023-03-29T06:58:09;101442.41;;;7.06;100.00
47054;BME280;32811;52.382;5.270;2023-03-29T07:00:36;101444.22;;;7.10;100.00
47054;BME280;32811;52.382;5.270;2023-03-29T07:03:06;101447.03;;;7.19;100.00
47054;BME280;32811;52.382;5.270;2023-03-29T07:05:33;101455.00;;;7.28;100.00
47054;BME280;32811;52.382;5.270;2023-03-29T07:08:01;101458.47;;;7.31;100.00
47054;BME280;32811;52.382;5.270;2023-03-29T07:10:35;101459.28;;;7.28;100.00
47054;BME280;32811;52.382;5.270;2023-03-29T07:13:04;101462.03;;;7.36;100.00
47054;BME280;32811;52.382;5.270;2023-03-29T07:15:32;101451.19;;;7.46;100.00
47054;BME280;32811;52.382;5.270;2023-03-29T07:17:59;101434.75;;;7.39;100.00
47054;BME280;32811;52.382;5.270;2023-03-29T07:20:27;101444.41;;;7.48;100.00
47054;BME280;32811;52.382;5.270;2023-03-29T07:22:54;101449.81;;;7.59;100.00
47054;BME280;32811;52.382;5.270;2023-03-29T07:25:24;101438.78;;;7.61;100.00
47054;BME280;32811;52.382;5.270;2023-03-29T07:27:51;101457.97;;;7.76;100.00
47054;BME280;32811;52.382;5.270;2023-03-29T07:30:20;101455.56;;;7.83;100.00
47054;BME280;32811;52.382;5.270;2023-03-29T07:32:49;101437.69;;;7.86;100.00
47054;BME280;32811;52.382;5.270;2023-03-29T07:35:17;101442.41;;;8.04;100.00
47054;BME280;32811;52.382;5.270;2023-03-29T07:37:44;101440.75;;;8.08;100.00
47054;BME280;32811;52.382;5.270;2023-03-29T07:40:13;101448.78;;;8.20;100.00
47054;BME280;32811;52.382;5.270;2023-03-29T07:42:42;101436.72;;;8.18;100.00
47054;BME280;32811;52.382;5.270;2023-03-29T07:45:10;101450.00;;;8.36;100.00
47054;BME280;32811;52.382;5.270;2023-03-29T07:47:39;101440.91;;;8.49;100.00
47054;BME280;32811;52.382;5.270;2023-03-29T07:50:07;101459.94;;;8.57;100.00
47054;BME280;32811;52.382;5.270;2023-03-29T07:52:37;101449.47;;;8.48;100.00
47054;BME280;32811;52.382;5.270;2023-03-29T07:55:09;101454.50;;;8.43;100.00
47054;BME280;32811;52.382;5.270;2023-03-29T07:57:36;101454.59;;;8.46;100.00
47054;BME280;32811;52.382;5.270;2023-03-29T08:00:03;101433.72;;;8.36;100.00
47054;BME280;32811;52.382;5.270;2023-03-29T08:02:47;101440.00;;;8.47;100.00
47054;BME280;32811;52.382;5.270;2023-03-29T08:05:16;101455.50;;;8.48;100.00
47054;BME280;32811;52.382;5.270;2023-03-29T08:07:51;101456.47;;;8.54;100.00
47054;BME280;32811;52.382;5.270;2023-03-29T08:10:19;101456.66;;;8.63;100.00
47054;BME280;32811;52.382;5.270;2023-03-29T08:12:47;101449.00;;;8.66;100.00
47054;BME280;32811;52.382;5.270;2023-03-29T08:15:15;101449.13;;;8.72;100.00
47054;BME280;32811;52.382;5.270;2023-03-29T08:17:42;101438.91;;;8.75;100.00
47054;BME280;32811;52.382;5.270;2023-03-29T08:20:11;101435.69;;;8.85;100.00
47054;BME280;32811;52.382;5.270;2023-03-29T08:22:38;101444.56;;;9.00;100.00
47054;BME280;32811;52.382;5.270;2023-03-29T08:25:06;101428.25;;;8.98;100.00
47054;BME280;32811;52.382;5.270;2023-03-29T08:27:33;101443.88;;;9.07;100.00
47054;BME280;32811;52.382;5.270;2023-03-29T08:30:00;101439.59;;;9.07;100.00
47054;BME280;32811;52.382;5.270;2023-03-29T08:32:27;101435.47;;;9.17;100.00
47054;BME280;32811;52.382;5.270;2023-03-29T08:34:53;101431.34;;;9.25;100.00
47054;BME280;32811;52.382;5.270;2023-03-29T08:37:20;101415.84;;;9.24;100.00
47054;BME280;32811;52.382;5.270;2023-03-29T08:39:47;101427.38;;;9.43;100.00
47054;BME280;32811;52.382;5.270;2023-03-29T08:50:31;101415.78;;;9.66;100.00
47054;BME280;32811;52.382;5.270;2023-03-29T08:53:19;101404.16;;;9.90;100.00
47054;BME280;32811;52.382;5.270;2023-03-29T08:55:52;101424.38;;;10.18;100.00
47054;BME280;32811;52.382;5.270;2023-03-29T08:58:24;101426.25;;;10.29;100.00
47054;BME280;32811;52.382;5.270;2023-03-29T09:00:53;101437.56;;;10.37;100.00
47054;BME280;32811;52.382;5.270;2023-03-29T09:05:52;101430.31;;;10.14;100.00
47054;BME280;32811;52.382;5.270;2023-03-29T09:08:21;101439.72;;;10.11;100.00
47054;BME280;32811;52.382;5.270;2023-03-29T09:13:44;101446.97;;;10.32;100.00
47054;BME280;32811;52.382;5.270;2023-03-29T09:16:26;101441.91;;;10.39;100.00
47054;BME280;32811;52.382;5.270;2023-03-29T09:22:08;101453.25;;;10.51;100.00
47054;BME280;32811;52.382;5.270;2023-03-29T09:30:34;101456.59;;;10.44;100.00
47054;BME280;32811;52.382;5.270;2023-03-29T09:35:53;101431.09;;;10.67;100.00
47054;BME280;32811;52.382;5.270;2023-03-29T09:38:21;101441.56;;;10.76;100.00
47054;BME280;32811;52.382;5.270;2023-03-29T09:41:04;101443.50;;;10.92;100.00
47054;BME280;32811;52.382;5.270;2023-03-29T09:43:40;101448.03;;;11.10;100.00
47054;BME280;32811;52.382;5.270;2023-03-29T09:46:18;101441.22;;;11.17;100.00
47054;BME280;32811;52.382;5.270;2023-03-29T09:48:48;101455.06;;;11.24;100.00
47054;BME280;32811;52.382;5.270;2023-03-29T09:51:16;101440.63;;;11.41;100.00
47054;BME280;32811;52.382;5.270;2023-03-29T09:53:44;101421.00;;;11.63;100.00
47054;BME280;32811;52.382;5.270;2023-03-29T09:56:12;101412.78;;;12.04;100.00
47054;BME280;32811;52.382;5.270;2023-03-29T09:58:42;101431.81;;;12.11;100.00
47054;BME280;32811;52.382;5.270;2023-03-29T10:01:12;101417.06;;;12.00;100.00
47054;BME280;32811;52.382;5.270;2023-03-29T10:03:40;101440.41;;;12.08;100.00
47054;BME280;32811;52.382;5.270;2023-03-29T10:06:09;101416.91;;;11.83;100.00
47054;BME280;32811;52.382;5.270;2023-03-29T10:08:46;101429.00;;;11.88;100.00
47054;BME280;32811;52.382;5.270;2023-03-29T10:11:28;101418.50;;;11.68;100.00
47054;BME280;32811;52.382;5.270;2023-03-29T10:14:00;101425.66;;;11.95;100.00
47054;BME280;32811;52.382;5.270;2023-03-29T10:16:32;101429.91;;;11.88;100.00
47054;BME280;32811;52.382;5.270;2023-03-29T10:19:19;101426.50;;;11.92;100.00
47054;BME280;32811;52.382;5.270;2023-03-29T10:21:47;101414.28;;;11.82;100.00
47054;BME280;32811;52.382;5.270;2023-03-29T10:24:21;101424.00;;;12.06;100.00
47054;BME280;32811;52.382;5.270;2023-03-29T10:26:51;101414.56;;;12.11;100.00
47054;BME280;32811;52.382;5.270;2023-03-29T10:29:23;101415.50;;;12.22;100.00
47054;BME280;32811;52.382;5.270;2023-03-29T10:31:50;101404.25;;;12.20;100.00
47054;BME280;32811;52.382;5.270;2023-03-29T10:34:18;101405.13;;;12.22;100.00
47054;BME280;32811;52.382;5.270;2023-03-29T10:36:56;101412.06;;;12.27;100.00
47054;BME280;32811;52.382;5.270;2023-03-29T10:39:27;101419.94;;;12.45;100.00
47054;BME280;32811;52.382;5.270;2023-03-29T10:41:54;101413.06;;;12.47;100.00
47054;BME280;32811;52.382;5.270;2023-03-29T10:44:39;101398.44;;;12.57;100.00
47054;BME280;32811;52.382;5.270;2023-03-29T10:47:08;101407.09;;;12.60;100.00
47054;BME280;32811;52.382;5.270;2023-03-29T10:49:44;101410.56;;;12.65;100.00
47054;BME280;32811;52.382;5.270;2023-03-29T10:52:14;101389.84;;;12.65;100.00
47054;BME280;32811;52.382;5.270;2023-03-29T10:54:42;101405.41;;;12.69;100.00
47054;BME280;32811;52.382;5.270;2023-03-29T10:57:12;101400.28;;;12.79;100.00
47054;BME280;32811;52.382;5.270;2023-03-29T11:00:00;101398.50;;;12.71;100.00
47054;BME280;32811;52.382;5.270;2023-03-29T11:05:42;101372.47;;;12.43;100.00
47054;BME280;32811;52.382;5.270;2023-03-29T11:10:56;101375.06;;;12.43;100.00
47054;BME280;32811;52.382;5.270;2023-03-29T11:24:36;101375.34;;;13.09;100.00
47054;BME280;32811;52.382;5.270;2023-03-29T11:27:08;101377.09;;;13.18;100.00
47054;BME280;32811;52.382;5.270;2023-03-29T11:29:41;101375.34;;;13.18;100.00
47054;BME280;32811;52.382;5.270;2023-03-29T11:38:12;101371.00;;;13.14;100.00
47054;BME280;32811;52.382;5.270;2023-03-29T11:40:45;101375.34;;;13.26;100.00
47054;BME280;32811;52.382;5.270;2023-03-29T11:43:22;101377.09;;;13.22;100.00
47054;BME280;32811;52.382;5.270;2023-03-29T11:46:07;101377.94;;;13.14;100.00
47054;BME280;32811;52.382;5.270;2023-03-29T11:48:48;101382.28;;;13.24;100.00
47054;BME280;32811;52.382;5.270;2023-03-29T11:51:31;101377.03;;;13.05;100.00
47054;BME280;32811;52.382;5.270;2023-03-29T11:54:15;101383.88;;;12.80;100.00
47054;BME280;32811;52.382;5.270;2023-03-29T11:57:09;101371.75;;;12.72;100.00
47054;BME280;32811;52.382;5.270;2023-03-29T11:59:42;101394.25;;;12.90;100.00
47054;BME280;32811;52.382;5.270;2023-03-29T12:04:58;101386.47;;;12.77;100.00
47054;BME280;32811;52.382;5.270;2023-03-29T12:07:42;101392.56;;;12.99;100.00
47054;BME280;32811;52.382;5.270;2023-03-29T12:10:19;101364.97;;;13.09;100.00
47054;BME280;32811;52.382;5.270;2023-03-29T12:15:25;101371.00;;;13.13;100.00
47054;BME280;32811;52.382;5.270;2023-03-29T12:20:25;101363.22;;;13.05;100.00
47054;BME280;32811;52.382;5.270;2023-03-29T12:22:54;101360.63;;;13.02;100.00
47054;BME280;32811;52.382;5.270;2023-03-29T12:25:25;101358.84;;;12.90;100.00
47054;BME280;32811;52.382;5.270;2023-03-29T12:28:15;101372.53;;;12.54;100.00
47054;BME280;32811;52.382;5.270;2023-03-29T12:33:41;101371.50;;;12.22;100.00
47054;BME280;32811;52.382;5.270;2023-03-29T12:36:18;101380.97;;;12.17;100.00
47054;BME280;32811;52.382;5.270;2023-03-29T12:38:52;101373.19;;;12.20;100.00
47054;BME280;32811;52.382;5.270;2023-03-29T12:41:20;101364.56;;;12.17;100.00
47054;BME280;32811;52.382;5.270;2023-03-29T12:43:48;101359.31;;;12.08;100.00
47054;BME280;32811;52.382;5.270;2023-03-29T12:46:23;101356.75;;;12.06;100.00
47054;BME280;32811;52.382;5.270;2023-03-29T12:48:53;101347.19;;;11.97;100.00
47054;BME280;32811;52.382;5.270;2023-03-29T12:51:31;101347.13;;;11.90;100.00
47054;BME280;32811;52.382;5.270;2023-03-29T12:54:05;101352.31;;;11.91;100.00
47054;BME280;32811;52.382;5.270;2023-03-29T12:56:38;101338.41;;;11.80;100.00
47054;BME280;32811;52.382;5.270;2023-03-29T13:01:37;101312.38;;;11.57;100.00
47054;BME280;32811;52.382;5.270;2023-03-29T13:04:16;101318.50;;;11.68;100.00
47054;BME280;32811;52.382;5.270;2023-03-29T13:09:23;101321.78;;;11.46;100.00
47054;BME280;32811;52.382;5.270;2023-03-29T13:14:44;101313.22;;;11.53;100.00
47054;BME280;32811;52.382;5.270;2023-03-29T13:30:56;101277.06;;;11.62;100.00
47054;BME280;32811;52.382;5.270;2023-03-29T13:33:51;101266.69;;;11.56;100.00
47054;BME280;32811;52.382;5.270;2023-03-29T13:36:34;101278.00;;;11.73;100.00
47054;BME280;32811;52.382;5.270;2023-03-29T13:39:05;101282.41;;;11.87;100.00
47054;BME280;32811;52.382;5.270;2023-03-29T13:44:37;101296.13;;;11.75;100.00
47054;BME280;32811;52.382;5.270;2023-03-29T13:47:13;101292.63;;;11.68;100.00
47054;BME280;32811;52.382;5.270;2023-03-29T13:49:46;101278.72;;;11.54;100.00
47054;BME280;32811;52.382;5.270;2023-03-29T13:52:32;101290.78;;;11.50;100.00
47054;BME280;32811;52.382;5.270;2023-03-29T13:55:04;101282.84;;;11.29;100.00
47054;BME280;32811;52.382;5.270;2023-03-29T13:57:38;101281.94;;;11.25;100.00
47054;BME280;32811;52.382;5.270;2023-03-29T14:00:13;101280.22;;;11.24;100.00
47054;BME280;32811;52.382;5.270;2023-03-29T14:02:48;101274.19;;;11.25;100.00
47054;BME280;32811;52.382;5.270;2023-03-29T14:05:19;101263.97;;;11.40;100.00
47054;BME280;32811;52.382;5.270;2023-03-29T14:07:50;101256.41;;;11.65;100.00
47054;BME280;32811;52.382;5.270;2023-03-29T14:10:21;101245.28;;;11.77;100.00
47054;BME280;32811;52.382;5.270;2023-03-29T14:12:49;101266.00;;;11.84;100.00
47054;BME280;32811;52.382;5.270;2023-03-29T14:15:25;101243.50;;;11.70;100.00
47054;BME280;32811;52.382;5.270;2023-03-29T14:17:55;101241.88;;;11.87;100.00
47054;BME280;32811;52.382;5.270;2023-03-29T14:20:26;101251.50;;;12.03;100.00
47054;BME280;32811;52.382;5.270;2023-03-29T14:22:53;101220.38;;;11.91;100.00
47054;BME280;32811;52.382;5.270;2023-03-29T14:25:20;101250.63;;;12.01;100.00
47054;BME280;32811;52.382;5.270;2023-03-29T14:27:48;101244.56;;;11.98;100.00
47054;BME280;32811;52.382;5.270;2023-03-29T14:30:17;101243.59;;;11.79;100.00
47054;BME280;32811;52.382;5.270;2023-03-29T14:32:47;101240.06;;;11.71;100.00
47054;BME280;32811;52.382;5.270;2023-03-29T14:35:14;101239.16;;;11.59;100.00
47054;BME280;32811;52.382;5.270;2023-03-29T14:37:41;101245.25;;;11.68;100.00
47054;BME280;32811;52.382;5.270;2023-03-29T14:40:18;101225.38;;;11.62;100.00